Terminal Aerodrome Forecast
Issued by NWS

Home | Current Version | Previous Version | Text Only | Print | Product List | Glossary On
Versions: 1 2 3 4 5 6 7 8 9 10 11 12 13 14 15 16 17
000
FTUS45 KREV 302320
TAFMMH
TAF
KMMH 302320Z 3100/3124 32010KT P6SM VCSH SCT070 SCT180
     FM310500 VRB04KT P6SM SCT200
     FM311700 13009KT P6SM FEW200=

USA.gov is the U.S. government's official web portal to all federal, state and local government web resources and services.